Welcome to Northern Hawkes Bay. New Zealand.
PWS Header
      nz Flag



Hit Counter


W3C Valid W3C Valid logo


    Wairoa

Select any of the Stations below to visit their websites.










Historic Data from Weather Underground
Select the location of interest below. Wairoa is the default. Please have patience, this Data is slow to load in.
Northern Hawkes Bay Historical Data
Daily Summary for May 5, 2017 Units:  English    Metric   Both
« Previous Day
Next Day »
Daily Weekly Monthly Yearly Custom
  High: Low: Average:
Temperature: 62.2 °F 43.5 °F 53.1 °F
Dew Point: 48.9 °F 41.9 °F 44.6 °F
Humidity: 97% 49% 74%
Wind Speed: 19.7mph 0mph 5.4mph
Wind Gust: 26.6mph - -
Wind- - West
Pressure: 30.3 in 29.9 in -
Precipitation: 0.05 in    
Historical Graphs
 
 
Tabular Data for May 5, 2017
Time Temperature Dew Point Pressure Wind Wind Speed Wind Gust Humidity Rainfall Rate (Hourly) solar
00:02 48.6 °F 44.2 °F 30 in NW 3.1 mph 6 mph 85% 0 in 0 W/m2
00:07 48.9 °F 45 °F 30 in NW 4.5 mph 7.6 mph 86% 0 in 0 W/m2
00:12 49.1 °F 45.1 °F 30 in NW 3.1 mph 8.3 mph 86% 0 in 0 W/m2
00:17 49.3 °F 45 °F 30 in NNW 2.2 mph 8.3 mph 85% 0 in 0 W/m2
00:22 49.5 °F 45.5 °F 30 in NW 0.7 mph 5.4 mph 86% 0 in 0 W/m2
00:27 49.6 °F 45.7 °F 29.9 in NW 0.7 mph 4.5 mph 86% 0 in 0 W/m2
00:32 49.6 °F 45.7 °F 30 in NW 4.5 mph 6 mph 86% 0 in 0 W/m2
00:37 49.6 °F 45.7 °F 30 in NW 4.5 mph 6 mph 86% 0 in 0 W/m2
00:42 49.6 °F 45.9 °F 30 in NW 3.8 mph 6 mph 87% 0.01 in 0 W/m2
00:47 49.6 °F 46.2 °F 30 in NW 2.2 mph 6.9 mph 88% 0.01 in 0 W/m2
00:52 50 °F 46.6 °F 30 in Calm   6.9 mph 88% 0.01 in 0 W/m2
00:57 49.6 °F 46.6 °F 30 in NNW 2.2 mph 5.4 mph 89% 0.01 in 0 W/m2
01:02 49.6 °F 46.6 °F 30 in North 4.5 mph 7.6 mph 89% 0.01 in 0 W/m2
01:07 49.6 °F 46.8 °F 30 in North 2.2 mph 7.6 mph 90% 0.01 in 0 W/m2
01:12 49.8 °F 46.9 °F 30 in NNW 3.1 mph 6.9 mph 90% 0.01 in 0 W/m2
01:17 49.8 °F 47.3 °F 30 in NNW 0.7 mph 6 mph 91% 0.01 in 0 W/m2
01:22 49.8 °F 47.7 °F 30 in NNW 3.1 mph 5.4 mph 92% 0.01 in 0 W/m2
01:27 50.2 °F 48 °F 30 in NNW 0.7 mph 6 mph 92% 0.01 in 0 W/m2
01:32 50.4 °F 48 °F 30 in NNW 1.6 mph 6 mph 92% 0.01 in 0 W/m2
01:37 50.4 °F 48 °F 30 in Calm   4.5 mph 92% 0.01 in 0 W/m2
01:42 50.2 °F 47.7 °F 30 in Calm   3.1 mph 91% 0 in 0 W/m2
01:47 50.2 °F 47.7 °F 30 in Calm   0.7 mph 91% 0 in 0 W/m2
01:52 50.4 °F 47.8 °F 30 in Calm   3.8 mph 91% 0 in 0 W/m2
01:57 50.5 °F 48 °F 30 in Calm   5.4 mph 91% 0.01 in 0 W/m2
02:02 50.9 °F 48.4 °F 30 in Calm   5.4 mph 91% 0.01 in 0 W/m2
02:07 50.9 °F 48 °F 30 in Calm   4.5 mph 90% 0.01 in 0 W/m2
02:12 50.9 °F 48 °F 30 in West 3.1 mph 6 mph 90% 0.01 in 0 W/m2
02:17 51.1 °F 48.4 °F 30 in West 3.1 mph 6 mph 90% 0.02 in 0 W/m2
02:22 51.3 °F 48 °F 30 in WNW 2.2 mph 6 mph 89% 0.02 in 0 W/m2
02:27 51.3 °F 48 °F 30 in Calm   8.3 mph 89% 0.02 in 0 W/m2
02:32 51.1 °F 48 °F 30 in WNW 0.7 mph 8.3 mph 89% 0.02 in 0 W/m2
02:37 51.1 °F 48 °F 30 in NW 3.8 mph 5.4 mph 89% 0.02 in 0 W/m2
02:42 50.9 °F 47.8 °F 30 in Calm   5.4 mph 89% 0.02 in 0 W/m2
02:47 50.9 °F 47.8 °F 30 in West 0.7 mph 5.4 mph 89% 0.02 in 0 W/m2
02:52 50.9 °F 48 °F 30 in Calm   5.4 mph 90% 0.02 in 0 W/m2
02:57 51.1 °F 48.4 °F 30 in WNW 7.6 mph 9.8 mph 90% 0.01 in 0 W/m2
03:02 51.4 °F 48.9 °F 30 in West 4.5 mph 9.8 mph 91% 0.01 in 0 W/m2
03:07 52.3 °F 48.4 °F 30 in West 6 mph 14.5 mph 86% 0.01 in 0 W/m2
03:12 52.9 °F 47.8 °F 30 in West 4.5 mph 14.5 mph 83% 0.01 in 0 W/m2
03:17 52.9 °F 47.5 °F 30 in WSW 1.6 mph 12.1 mph 82% 0 in 0 W/m2
03:22 53.1 °F 47.1 °F 30 in WSW 11.4 mph 14.5 mph 80% 0 in 0 W/m2
03:27 53.2 °F 46.9 °F 30 in WSW 3.1 mph 14.5 mph 79% 0 in 0 W/m2
03:32 53.1 °F 47.1 °F 30 in West 7.6 mph 13.6 mph 80% 0 in 0 W/m2
03:37 53.1 °F 46.4 °F 30 in West 7.6 mph 13.6 mph 78% 0 in 0 W/m2
03:42 53.4 °F 46 °F 30 in West 9.2 mph 15.9 mph 76% 0 in 0 W/m2
03:47 53.4 °F 45.3 °F 30 in WNW 8.3 mph 17.4 mph 74% 0 in 0 W/m2
03:52 53.6 °F 44.8 °F 30 in WNW 4.5 mph 17.4 mph 72% 0 in 0 W/m2
03:57 53.6 °F 44.4 °F 30 in WSW 8.3 mph 15.2 mph 71% 0 in 0 W/m2
04:02 53.6 °F 44.4 °F 30 in SW 6 mph 15.2 mph 71% 0 in 0 W/m2
04:07 53.6 °F 45.1 °F 30 in WSW 6 mph 15.2 mph 73% 0 in 0 W/m2
04:12 53.6 °F 45.1 °F 30 in SW 11.4 mph 15.2 mph 73% 0 in 0 W/m2
04:17 53.6 °F 44.4 °F 30 in SW 5.4 mph 15.2 mph 71% 0 in 0 W/m2
04:22 53.6 °F 44.8 °F 30 in SW 6.9 mph 15.2 mph 72% 0 in 0 W/m2
04:27 53.4 °F 45.3 °F 30 in WSW 2.2 mph 10.7 mph 74% 0 in 0 W/m2
04:32 53.1 °F 45.3 °F 30 in Calm   10.7 mph 75% 0 in 0 W/m2
04:37 52.7 °F 45 °F 30 in West 2.2 mph 7.6 mph 75% 0 in 0 W/m2
04:42 52.5 °F 44.8 °F 30 in West 3.8 mph 7.6 mph 75% 0 in 0 W/m2
04:47 52.2 °F 44.8 °F 30 in West 2.2 mph 7.6 mph 76% 0 in 0 W/m2
04:52 51.6 °F 45.3 °F 30.1 in WNW 1.6 mph 7.6 mph 79% 0 in 0 W/m2
04:57 51.3 °F 45.3 °F 30.1 in West 1.6 mph 6.9 mph 80% 0 in 0 W/m2
05:02 51.4 °F 45.1 °F 30.1 in Calm   6.9 mph 79% 0 in 0 W/m2
05:07 51.4 °F 45.1 °F 30.1 in WSW 5.4 mph 7.6 mph 79% 0 in 0 W/m2
05:12 51.6 °F 44.8 °F 30.1 in West 3.8 mph 8.3 mph 77% 0 in 0 W/m2
05:17 51.6 °F 44.8 °F 30.1 in WSW 8.3 mph 13.6 mph 77% 0 in 0 W/m2
05:22 51.8 °F 44.4 °F 30.1 in WSW 2.2 mph 13.6 mph 76% 0 in 0 W/m2
05:27 52 °F 44.2 °F 30.1 in WSW 3.8 mph 13.6 mph 75% 0 in 0 W/m2
05:32 51.8 °F 44.4 °F 30.1 in WSW 3.1 mph 9.8 mph 76% 0 in 0 W/m2
05:37 51.6 °F 44.8 °F 30.1 in WSW 1.6 mph 9.8 mph 77% 0 in 0 W/m2
05:42 51.4 °F 44.4 °F 30.1 in WSW 3.1 mph 6.9 mph 77% 0 in 0 W/m2
05:47 51.3 °F 44.6 °F 30.1 in West 2.2 mph 6.9 mph 78% 0 in 0 W/m2
05:52 50.9 °F 44.2 °F 30.1 in WNW 2.2 mph 5.4 mph 78% 0 in 0 W/m2
05:57 50.2 °F 43.9 °F 30.1 in Calm   5.4 mph 79% 0 in 0 W/m2
06:02 49.3 °F 43.7 °F 30.1 in NW 3.1 mph 6 mph 81% 0 in 0 W/m2
06:07 48.7 °F 44.1 °F 30.1 in NW 1.6 mph 6 mph 84% 0 in 0 W/m2
06:12 48.6 °F 44.2 °F 30.1 in Calm   5.4 mph 85% 0 in 0 W/m2
06:17 48.4 °F 44.1 °F 30.1 in Calm   3.1 mph 85% 0 in 0 W/m2
06:22 48.4 °F 44.4 °F 30.1 in Calm   0.7 mph 86% 0 in 0 W/m2
06:27 48 °F 44.2 °F 30.1 in Calm   0.7 mph 87% 0 in 0 W/m2
06:32 47.8 °F 44.2 °F 30.1 in Calm   0.7 mph 87% 0 in 0 W/m2
06:37 48.2 °F 44.2 °F 30.1 in WNW 8.3 mph 9.2 mph 86% 0 in 0 W/m2
06:42 48.6 °F 44.2 °F 30.1 in Calm   9.2 mph 85% 0 in 0 W/m2
06:47 48.7 °F 44.4 °F 30.1 in WSW 4.5 mph 11.4 mph 85% 0 in 0 W/m2
06:52 50.7 °F 44.8 °F 30.1 in SW 6.9 mph 13.6 mph 80% 0 in 0 W/m2
06:57 52.2 °F 43.9 °F 30.1 in SW 15.9 mph 21.3 mph 73% 0 in 2 W/m2
07:02 52.7 °F 42.8 °F 30.1 in SW 12.1 mph 21.3 mph 69% 0 in 4 W/m2
07:07 52.9 °F 42.6 °F 30.1 in SW 15.9 mph 22.1 mph 68% 0 in 7 W/m2
07:12 53.2 °F 43.3 °F 30.1 in SW 19.7 mph 26.6 mph 69% 0.01 in 9 W/m2
07:17 53.2 °F 43 °F 30.1 in SW 11.4 mph 26.6 mph 68% 0.01 in 14 W/m2
07:22 53.1 °F 43.2 °F 30.1 in WSW 9.8 mph 26.6 mph 69% 0.01 in 13 W/m2
07:27 52.7 °F 42.4 °F 30.1 in WSW 13 mph 23.5 mph 68% 0.01 in 17 W/m2
07:32 52.7 °F 42.4 °F 30.1 in SW 13.6 mph 23.5 mph 68% 0.01 in 20 W/m2
07:37 52.9 °F 43 °F 30.1 in SW 10.7 mph 20.6 mph 69% 0.01 in 26 W/m2
07:42 52.9 °F 43 °F 30.1 in SW 9.8 mph 19 mph 69% 0.01 in 100 W/m2
07:47 53.6 °F 43 °F 30.1 in WSW 15.9 mph 21.3 mph 67% 0.01 in 117 W/m2
07:52 54.1 °F 43.9 °F 30.1 in SW 7.6 mph 21.3 mph 68% 0.01 in 50 W/m2
07:57 54.1 °F 43.9 °F 30.1 in SW 10.7 mph 21.3 mph 68% 0.01 in 109 W/m2
08:02 54.1 °F 43.9 °F 30.1 in SW 13.6 mph 22.1 mph 68% 0.01 in 154 W/m2
08:07 54 °F 43 °F 30.1 in WSW 13 mph 22.1 mph 66% 0.01 in 161 W/m2
08:12 54.5 °F 44.2 °F 30.1 in West 9.2 mph 22.1 mph 68% 0 in 103 W/m2
08:17 54.3 °F 43.2 °F 30.2 in West 10.7 mph 25.1 mph 66% 0 in 63 W/m2
08:22 54.3 °F 43.2 °F 30.2 in WSW 15.9 mph 25.1 mph 66% 0 in 205 W/m2
08:27 54.5 °F 43.3 °F 30.2 in SW 9.2 mph 22.1 mph 66% 0 in 219 W/m2
08:32 54.3 °F 43.2 °F 30.2 in SW 13.6 mph 22.1 mph 66% 0 in 81 W/m2
08:37 54.5 °F 43.3 °F 30.2 in SW 10.7 mph 21.3 mph 66% 0 in 241 W/m2
08:42 54.7 °F 42.8 °F 30.2 in WSW 14.5 mph 23.5 mph 64% 0 in 265 W/m2
08:47 54.7 °F 42.8 °F 30.2 in WSW 8.3 mph 23.5 mph 64% 0 in 265 W/m2
08:52 55.2 °F 43.7 °F 30.2 in SW 11.4 mph 22.8 mph 65% 0 in 281 W/m2
08:57 55.4 °F 43.3 °F 30.2 in SW 16.8 mph 22.1 mph 64% 0 in 286 W/m2
09:02 55.4 °F 43.9 °F 30.2 in SW 17.4 mph 23.5 mph 65% 0 in 300 W/m2
09:07 55.2 °F 43.3 °F 30.2 in SW 13 mph 23.5 mph 64% 0 in 311 W/m2
09:12 55.4 °F 44.2 °F 30.2 in SW 8.3 mph 23.5 mph 66% 0 in 107 W/m2
09:17 55.4 °F 43.9 °F 30.2 in SW 10.7 mph 23.5 mph 65% 0 in 328 W/m2
09:22 55 °F 42.6 °F 30.2 in WSW 13.6 mph 23.5 mph 63% 0 in 328 W/m2
09:27 55.2 °F 43 °F 30.2 in WSW 15.2 mph 22.8 mph 63% 0 in 285 W/m2
09:32 55.8 °F 44.2 °F 30.2 in SW 14.5 mph 22.8 mph 65% 0 in 235 W/m2
09:37 55.9 °F 44.4 °F 30.2 in SW 15.9 mph 22.1 mph 65% 0 in 136 W/m2
09:42 56.3 °F 44.2 °F 30.2 in SW 13.6 mph 22.1 mph 64% 0 in 80 W/m2
09:47 56.3 °F 44.8 °F 30.2 in WSW 14.5 mph 24.4 mph 65% 0 in 73 W/m2
09:52 56.7 °F 45.3 °F 30.2 in SW 13 mph 24.4 mph 66% 0 in 72 W/m2
09:57 56.8 °F 45.1 °F 30.2 in SW 10.7 mph 23.5 mph 65% 0 in 73 W/m2
10:02 57.2 °F 44.2 °F 30.2 in WSW 11.4 mph 23.5 mph 62% 0 in 71 W/m2
10:07 56.5 °F 43.5 °F 30.2 in SW 10.7 mph 23.5 mph 62% 0 in 65 W/m2
10:12 56.8 °F 44.8 °F 30.2 in SW 12.1 mph 22.1 mph 64% 0 in 67 W/m2
10:17 56.8 °F 44.4 °F 30.2 in SW 12.1 mph 22.1 mph 63% 0 in 82 W/m2
10:22 57.2 °F 43.9 °F 30.2 in WSW 15.2 mph 23.5 mph 61% 0 in 271 W/m2
10:27 57.2 °F 45.1 °F 30.2 in WSW 9.2 mph 23.5 mph 64% 0 in 248 W/m2
10:32 57.6 °F 45.1 °F 30.2 in SW 10.7 mph 20.6 mph 63% 0 in 358 W/m2
10:37 57.4 °F 43.2 °F 30.2 in SSW 15.2 mph 22.8 mph 59% 0 in 361 W/m2
10:42 57.6 °F 44.2 °F 30.2 in SSW 9.8 mph 22.8 mph 61% 0 in 366 W/m2
10:47 57.6 °F 44.2 °F 30.2 in SW 12.1 mph 21.3 mph 61% 0 in 379 W/m2
10:52 57.2 °F 44.2 °F 30.2 in SW 9.2 mph 25.1 mph 62% 0 in 375 W/m2
10:57 57.2 °F 43.5 °F 30.2 in SW 13 mph 25.1 mph 60% 0 in 377 W/m2
11:02 57.4 °F 44.4 °F 30.2 in SW 13.6 mph 23.5 mph 62% 0 in 383 W/m2
11:07 57.4 °F 45 °F 30.2 in SW 13 mph 20.6 mph 63% 0 in 387 W/m2
11:12 57.4 °F 45.3 °F 30.2 in SW 9.8 mph 19.7 mph 64% 0 in 385 W/m2
11:17 57.9 °F 45.3 °F 30.2 in SW 15.9 mph 19.7 mph 63% 0 in 389 W/m2
11:22 57.7 °F 45.1 °F 30.2 in WSW 15.2 mph 20.6 mph 63% 0 in 387 W/m2
11:27 57.6 °F 44.8 °F 30.2 in WSW 9.2 mph 20.6 mph 62% 0 in 389 W/m2
11:32 57.4 °F 44.4 °F 30.2 in SW 8.3 mph 20.6 mph 62% 0 in 387 W/m2
11:37 57.7 °F 44.8 °F 30.2 in SW 12.1 mph 20.6 mph 62% 0 in 383 W/m2
11:42 57.6 °F 44.8 °F 30.2 in WSW 13 mph 19.7 mph 62% 0 in 386 W/m2
11:47 57.6 °F 44.8 °F 30.2 in WSW 9.2 mph 21.3 mph 62% 0 in 385 W/m2
11:52 57.9 °F 44.6 °F 30.2 in SW 13 mph 21.3 mph 61% 0 in 387 W/m2
11:57 58.3 °F 45 °F 30.2 in SW 11.4 mph 19 mph 61% 0 in 387 W/m2
12:02 58.5 °F 45.1 °F 30.2 in SW 10.7 mph 17.4 mph 61% 0 in 384 W/m2
12:07 58.3 °F 45 °F 30.2 in SW 14.5 mph 21.3 mph 61% 0 in 380 W/m2
12:12 58.6 °F 44.8 °F 30.2 in SW 9.2 mph 21.3 mph 60% 0 in 381 W/m2
12:17 59 °F 44.2 °F 30.2 in SW 10.7 mph 17.4 mph 58% 0 in 377 W/m2
12:22 59 °F 44.8 °F 30.2 in SW 10.7 mph 17.4 mph 59% 0 in 378 W/m2
12:27 59 °F 44.2 °F 30.2 in WSW 12.1 mph 19.7 mph 58% 0 in 396 W/m2
12:32 59 °F 45.1 °F 30.2 in WSW 7.6 mph 19.7 mph 60% 0 in 160 W/m2
12:37 58.8 °F 45.3 °F 30.2 in SW 10.7 mph 19 mph 61% 0 in 377 W/m2
12:42 59.4 °F 45 °F 30.2 in SW 9.8 mph 18.3 mph 59% 0 in 402 W/m2
12:47 59.7 °F 45 °F 30.2 in SW 9.8 mph 15.2 mph 58% 0 in 374 W/m2
12:52 59.5 °F 45.1 °F 30.2 in SW 6.9 mph 15.9 mph 59% 0 in 362 W/m2
12:57 60.6 °F 45.3 °F 30.2 in SW 11.4 mph 16.8 mph 57% 0 in 366 W/m2
13:02 59.7 °F 43.5 °F 30.2 in SW 8.3 mph 16.8 mph 55% 0 in 349 W/m2
13:07 59.7 °F 43.2 °F 30.2 in SW 12.1 mph 17.4 mph 54% 0 in 95 W/m2
13:12 59.2 °F 44.4 °F 30.2 in SW 9.8 mph 17.4 mph 58% 0 in 357 W/m2
13:17 59.2 °F 43 °F 30.2 in SW 10.7 mph 16.8 mph 55% 0 in 106 W/m2
13:22 59.4 °F 42.6 °F 30.2 in SW 12.1 mph 19.7 mph 54% 0 in 345 W/m2
13:28 59.7 °F 42.6 °F 30.2 in SW 11.4 mph 19.7 mph 53% 0 in 348 W/m2
13:33 60.1 °F 43.3 °F 30.2 in SW 6.9 mph 17.4 mph 54% 0 in 102 W/m2
13:38 59.9 °F 43.7 °F 30.2 in SW 7.6 mph 17.4 mph 55% 0 in 105 W/m2
13:43 59.7 °F 43.5 °F 30.2 in SW 6.9 mph 15.2 mph 55% 0 in 170 W/m2
13:48 60.1 °F 43.9 °F 30.2 in SW 9.8 mph 14.5 mph 55% 0 in 114 W/m2
13:53 60.1 °F 43.3 °F 30.2 in SW 13.6 mph 17.4 mph 54% 0 in 75 W/m2
13:58 60.1 °F 43.3 °F 30.2 in WSW 7.6 mph 17.4 mph 54% 0 in 68 W/m2
14:03 60.3 °F 44.1 °F 30.2 in WSW 5.4 mph 17.4 mph 55% 0 in 68 W/m2
14:08 60.4 °F 44.2 °F 30.2 in SW 6.9 mph 13.6 mph 55% 0 in 68 W/m2
14:13 60.8 °F 43.5 °F 30.2 in WSW 5.4 mph 13.6 mph 53% 0 in 69 W/m2
14:18 61 °F 43.7 °F 30.2 in WSW 6 mph 9.8 mph 53% 0 in 73 W/m2
14:23 61.2 °F 44.4 °F 30.2 in WSW 9.2 mph 12.1 mph 54% 0 in 72 W/m2
14:28 61.3 °F 44.1 °F 30.2 in WSW 5.4 mph 12.1 mph 53% 0 in 72 W/m2
14:33 61.2 °F 43.9 °F 30.2 in SW 6.9 mph 9.8 mph 53% 0 in 74 W/m2
14:38 61.2 °F 43.3 °F 30.2 in SW 8.3 mph 12.1 mph 52% 0 in 74 W/m2
14:43 61.2 °F 43.3 °F 30.2 in SW 5.4 mph 12.1 mph 52% 0 in 72 W/m2
14:48 61.3 °F 43.2 °F 30.2 in SW 8.3 mph 13 mph 51% 0 in 71 W/m2
14:53 61.2 °F 43 °F 30.2 in SW 7.6 mph 13 mph 51% 0 in 72 W/m2
14:58 61.2 °F 41.9 °F 30.2 in SW 9.2 mph 13.6 mph 49% 0 in 90 W/m2
15:03 61 °F 42.6 °F 30.2 in SW 8.3 mph 15.9 mph 51% 0 in 105 W/m2
15:08 61.2 °F 41.9 °F 30.2 in SW 6.9 mph 15.9 mph 49% 0 in 147 W/m2
15:13 60.8 °F 42.6 °F 30.2 in SW 5.4 mph 14.5 mph 51% 0 in 181 W/m2
15:18 61.2 °F 43.3 °F 30.2 in SW 7.6 mph 11.4 mph 52% 0 in 177 W/m2
15:23 61.5 °F 42.6 °F 30.2 in SW 5.4 mph 11.4 mph 50% 0 in 170 W/m2
15:28 62.2 °F 44.4 °F 30.2 in SSW 8.3 mph 11.4 mph 52% 0 in 160 W/m2
15:33 61.9 °F 44.1 °F 30.2 in SSW 6 mph 10.7 mph 52% 0 in 152 W/m2
15:38 62.1 °F 43.7 °F 30.2 in SSW 3.8 mph 10.7 mph 51% 0 in 141 W/m2
15:43 62.2 °F 43.3 °F 30.2 in SW 6 mph 11.4 mph 50% 0 in 129 W/m2
15:48 61.7 °F 43.9 °F 30.2 in SW 6.9 mph 11.4 mph 52% 0 in 114 W/m2
15:53 61.7 °F 43.9 °F 30.2 in SSW 6 mph 11.4 mph 52% 0 in 102 W/m2
15:58 61.5 °F 44.2 °F 30.2 in SSW 6.9 mph 11.4 mph 53% 0 in 89 W/m2
16:03 61 °F 44.2 °F 30.2 in SSW 6.9 mph 11.4 mph 54% 0 in 75 W/m2
16:08 61 °F 43.7 °F 30.2 in SSW 4.5 mph 11.4 mph 53% 0 in 60 W/m2
16:13 61.2 °F 44.4 °F 30.2 in SSW 3.1 mph 9.8 mph 54% 0 in 53 W/m2
16:18 61.5 °F 45.1 °F 30.2 in SSW 3.1 mph 7.6 mph 55% 0 in 49 W/m2
16:23 61.5 °F 44.8 °F 30.2 in SW 5.4 mph 8.3 mph 54% 0 in 51 W/m2
16:28 61.2 °F 44.4 °F 30.2 in SW 3.8 mph 9.2 mph 54% 0 in 50 W/m2
16:33 60.8 °F 44.1 °F 30.2 in SSW 4.5 mph 9.2 mph 54% 0 in 49 W/m2
16:38 60.4 °F 44.2 °F 30.2 in SW 5.4 mph 8.3 mph 55% 0 in 46 W/m2
16:43 60.1 °F 44.8 °F 30.2 in SW 3.8 mph 8.3 mph 57% 0 in 42 W/m2
16:48 60.1 °F 44.8 °F 30.2 in SW 1.6 mph 6.9 mph 57% 0 in 36 W/m2
16:53 60.3 °F 45 °F 30.2 in Calm   6.9 mph 57% 0 in 27 W/m2
16:58 60.4 °F 45.1 °F 30.2 in Calm   3.8 mph 57% 0 in 20 W/m2
17:03 59.5 °F 44.2 °F 30.2 in Calm   1.6 mph 57% 0 in 13 W/m2
17:08 58.1 °F 43.9 °F 30.2 in West 0.7 mph 2.2 mph 59% 0 in 9 W/m2
17:13 57 °F 44.1 °F 30.2 in Calm   2.2 mph 62% 0 in 5 W/m2
17:18 56.1 °F 43.7 °F 30.2 in Calm   2.2 mph 63% 0 in 3 W/m2
17:23 55.6 °F 44.1 °F 30.2 in Calm   2.2 mph 65% 0 in 1 W/m2
17:28 55 °F 43.5 °F 30.2 in Calm   1.6 mph 65% 0 in 0 W/m2
17:33 54.5 °F 43.9 °F 30.2 in Calm   1.6 mph 67% 0 in 0 W/m2
17:38 54.1 °F 44.2 °F 30.2 in Calm     69% 0 in 0 W/m2
17:43 53.4 °F 44.6 °F 30.2 in Calm     72% 0 in 0 W/m2
17:48 52.9 °F 44.1 °F 30.2 in Calm     72% 0 in 0 W/m2
17:53 52.3 °F 44.2 °F 30.2 in Calm     74% 0 in 0 W/m2
17:58 52 °F 44.1 °F 30.2 in Calm   1.6 mph 74% 0 in 0 W/m2
18:03 51.8 °F 44.1 °F 30.2 in Calm   1.6 mph 75% 0 in 0 W/m2
18:08 51.4 °F 44.1 °F 30.2 in Calm     76% 0 in 0 W/m2
18:13 51.4 °F 44.4 °F 30.2 in Calm     77% 0 in 0 W/m2
18:18 51.1 °F 44.4 °F 30.2 in Calm     78% 0 in 0 W/m2
18:23 51.1 °F 44.8 °F 30.2 in North 3.1 mph 5.4 mph 79% 0 in 0 W/m2
18:28 51.3 °F 45.3 °F 30.2 in North 0.7 mph 5.4 mph 80% 0 in 0 W/m2
18:46 50.5 °F 45.7 °F 30.2 in NW 3.1 mph 4.5 mph 83% 0 in 0 W/m2
18:51 50.5 °F 45.7 °F 30.2 in NNW 0.7 mph 4.5 mph 83% 0 in 0 W/m2
18:56 50.2 °F 45.1 °F 30.2 in Calm   2.2 mph 83% 0 in 0 W/m2
19:01 49.6 °F 45 °F 30.2 in Calm   2.2 mph 84% 0 in 0 W/m2
19:06 49.3 °F 44.8 °F 30.2 in NNW 0.7 mph 1.6 mph 84% 0 in 0 W/m2
19:11 48.9 °F 44.6 °F 30.2 in Calm   1.6 mph 85% 0 in 0 W/m2
19:16 48.6 °F 44.2 °F 30.2 in Calm   1.6 mph 85% 0 in 0 W/m2
19:21 48.4 °F 44.4 °F 30.2 in Calm   1.6 mph 86% 0 in 0 W/m2
19:26 48.2 °F 44.4 °F 30.2 in Calm   0.7 mph 87% 0 in 0 W/m2
19:31 47.8 °F 44.4 °F 30.2 in NW 1.6 mph 2.2 mph 88% 0 in 0 W/m2
19:36 47.7 °F 44.6 °F 30.2 in NW 1.6 mph 3.1 mph 89% 0 in 0 W/m2
19:41 47.5 °F 44.4 °F 30.2 in Calm   3.1 mph 89% 0 in 0 W/m2
19:46 47.5 °F 44.8 °F 30.2 in Calm   3.1 mph 90% 0 in 0 W/m2
19:51 47.3 °F 44.4 °F 30.2 in NNW 0.7 mph 3.8 mph 90% 0 in 0 W/m2
19:56 47.3 °F 44.8 °F 30.2 in NNW 0.7 mph 3.8 mph 91% 0 in 0 W/m2
20:01 47.3 °F 44.8 °F 30.2 in Calm   3.8 mph 91% 0 in 0 W/m2
20:06 47.1 °F 44.6 °F 30.2 in NNW 0.7 mph 3.8 mph 91% 0 in 0 W/m2
20:11 46.9 °F 44.4 °F 30.2 in Calm   2.2 mph 91% 0 in 0 W/m2
20:16 46.9 °F 44.4 °F 30.2 in Calm   2.2 mph 91% 0 in 0 W/m2
20:21 46.6 °F 44.1 °F 30.2 in Calm   2.2 mph 91% 0 in 0 W/m2
20:26 46.6 °F 44.1 °F 30.2 in Calm   2.2 mph 91% 0 in 0 W/m2
20:31 46.4 °F 44.2 °F 30.2 in NNW 0.7 mph 2.2 mph 92% 0 in 0 W/m2
20:36 46.2 °F 44.1 °F 30.2 in Calm   3.1 mph 92% 0 in 0 W/m2
20:41 46.2 °F 44.2 °F 30.2 in Calm   3.1 mph 93% 0 in 0 W/m2
20:46 46 °F 44.1 °F 30.2 in Calm     93% 0 in 0 W/m2
20:51 46 °F 44.1 °F 30.2 in Calm   2.2 mph 93% 0 in 0 W/m2
20:56 45.9 °F 44.1 °F 30.2 in Calm   2.2 mph 93% 0 in 0 W/m2
21:01 45.7 °F 43.9 °F 30.2 in NNW 0.7 mph 2.2 mph 93% 0 in 0 W/m2
21:06 45.5 °F 43.5 °F 30.2 in North 1.6 mph 3.1 mph 93% 0 in 0 W/m2
21:11 45.5 °F 43.5 °F 30.2 in NNW 1.6 mph 3.1 mph 93% 0 in 0 W/m2
21:16 45.3 °F 43.7 °F 30.2 in Calm   3.1 mph 94% 0 in 0 W/m2
21:21 45.3 °F 43.7 °F 30.2 in NNW 1.6 mph 3.8 mph 94% 0 in 0 W/m2
21:26 45.3 °F 43.7 °F 30.2 in NNW 2.2 mph 4.5 mph 94% 0 in 0 W/m2
21:31 45.3 °F 43.7 °F 30.3 in Calm   4.5 mph 94% 0 in 0 W/m2
21:36 45.1 °F 43.5 °F 30.3 in NNW 1.6 mph 3.8 mph 94% 0 in 0 W/m2
21:41 45.1 °F 43.5 °F 30.3 in NNW 2.2 mph 3.8 mph 94% 0 in 0 W/m2
21:47 45 °F 43.3 °F 30.3 in NNW 2.2 mph 3.8 mph 94% 0 in 0 W/m2
21:52 44.8 °F 43.3 °F 30.3 in NNW 1.6 mph 3.8 mph 95% 0 in 0 W/m2
21:57 44.8 °F 43.3 °F 30.3 in NNW 0.7 mph 3.8 mph 95% 0 in 0 W/m2
22:02 44.6 °F 43.3 °F 30.3 in NNW 1.6 mph 3.8 mph 95% 0 in 0 W/m2
22:07 44.6 °F 43.3 °F 30.3 in NNW 2.2 mph 4.5 mph 95% 0 in 0 W/m2
22:12 44.4 °F 43.3 °F 30.3 in North 2.2 mph 4.5 mph 96% 0 in 0 W/m2
22:17 44.4 °F 43.3 °F 30.3 in NNW 1.6 mph 4.5 mph 96% 0 in 0 W/m2
22:22 44.4 °F 43.3 °F 30.3 in NW 0.7 mph 3.8 mph 96% 0 in 0 W/m2
22:27 44.4 °F 43.3 °F 30.3 in NW 0.7 mph 3.8 mph 96% 0 in 0 W/m2
22:32 44.2 °F 43.2 °F 30.3 in NNW 1.6 mph 3.8 mph 96% 0 in 0 W/m2
22:37 44.2 °F 43.2 °F 30.3 in NNW 0.7 mph 3.8 mph 96% 0 in 0 W/m2
22:56 44.4 °F 43.5 °F 30.3 in North 3.1 mph 4.5 mph 97% 0 in 0 W/m2
23:02 44.4 °F 43.5 °F 30.3 in Calm   4.5 mph 97% 0 in 0 W/m2
23:07 44.4 °F 43.3 °F 30.3 in NNW 1.6 mph 4.5 mph 96% 0 in 0 W/m2
23:12 44.4 °F 43.3 °F 30.3 in NNW 1.6 mph 4.5 mph 96% 0 in 0 W/m2
23:17 44.2 °F 43.2 °F 30.3 in NW 3.1 mph 4.5 mph 96% 0 in 0 W/m2
23:22 44.2 °F 43.2 °F 30.3 in NW 2.2 mph 5.4 mph 96% 0 in 0 W/m2
23:27 44.1 °F 43 °F 30.3 in NNW 2.2 mph 5.4 mph 96% 0 in 0 W/m2
23:32 43.9 °F 42.8 °F 30.3 in NNW 2.2 mph 4.5 mph 96% 0 in 0 W/m2
23:37 43.9 °F 42.8 °F 30.3 in NW 2.2 mph 4.5 mph 96% 0 in 0 W/m2
23:42 43.9 °F 42.8 °F 30.3 in NW 2.2 mph 4.5 mph 96% 0 in 0 W/m2
23:47 43.7 °F 42.6 °F 30.3 in NNW 1.6 mph 4.5 mph 96% 0 in 0 W/m2
23:53 43.5 °F 42.4 °F 30.3 in NNW 2.2 mph 4.5 mph 96% 0 in 0 W/m2
23:59 43.5 °F 42.4 °F 30.3 in NW 1.6 mph 3.8 mph 96% 0 in 0 W/m2
Northern Hawkes Bay. New Zealand Historic Data
Compliments of Weather Underground - 2 mb